TimeCAT,TemperatureF,Dew PointF,Humidity,Sea Level PressureIn,VisibilityMPH,Wind Direction,Wind SpeedMPH,Gust SpeedMPH,PrecipitationIn,Events,Conditions,WindDirDegrees,DateUTC
2:00 AM,63,62,93,,16,Calm,Calm,,,,Partly Cloudy,,2013-02-22 00:00:00
2:00 AM,62.6,60.8,94,30.12,-9999.0,Calm,Calm,-,N/A,,Clear,0,2013-02-22 00:00:00
3:00 AM,62.6,60.8,94,30.12,-9999.0,ESE,4.6,-,N/A,,Clear,120,2013-02-22 01:00:00
5:00 AM,60.8,60.8,100,30.12,-9999.0,Calm,Calm,-,N/A,,Clear,0,2013-02-22 03:00:00
6:00 AM,60.8,60.8,100,30.12,6.2,Calm,Calm,-,N/A,,Mostly Cloudy,0,2013-02-22 04:00:00
7:00 AM,62.6,62.6,100,30.15,6.2,SSE,4.6,-,N/A,,Mostly Cloudy,160,2013-02-22 05:00:00
8:00 AM,64,62,90,,16,SE,6.9,,,,Mostly Cloudy,130,2013-02-22 06:00:00
8:00 AM,64.4,62.6,94,30.15,6.2,SE,6.9,-,N/A,,Mostly Cloudy,130,2013-02-22 06:00:00
9:00 AM,69.8,62.6,78,30.15,6.2,East,4.6,-,N/A,,Scattered Clouds,100,2013-02-22 07:00:00
10:00 AM,73.4,62.6,69,30.15,6.2,Variable,1.2,-,N/A,,Mostly Cloudy,0,2013-02-22 08:00:00
11:00 AM,75.2,62.6,65,30.15,6.2,SSW,6.9,-,N/A,,Mostly Cloudy,200,2013-02-22 09:00:00
12:00 PM,78.8,60.8,54,30.12,6.2,South,5.8,-,N/A,,Mostly Cloudy,190,2013-02-22 10:00:00
1:00 PM,80.6,60.8,51,30.12,6.2,SSW,6.9,-,N/A,,Scattered Clouds,200,2013-02-22 11:00:00
2:00 PM,81,62,42,,19,South,5.8,,,,Mostly Cloudy,190,2013-02-22 12:00:00
2:00 PM,80.6,60.8,51,30.06,6.2,South,5.8,-,N/A,,Scattered Clouds,190,2013-02-22 12:00:00
3:00 PM,80.6,57.2,45,30.06,6.2,South,8.1,-,N/A,,Scattered Clouds,180,2013-02-22 13:00:00
4:00 PM,80.6,59.0,48,30.04,6.2,SSW,9.2,-,N/A,,Scattered Clouds,210,2013-02-22 14:00:00
5:00 PM,77.0,55.4,47,30.04,6.2,SSE,6.9,-,N/A,,Scattered Clouds,150,2013-02-22 15:00:00
7:00 PM,71.6,62.6,73,30.09,6.2,NNE,4.6,-,N/A,,Scattered Clouds,20,2013-02-22 17:00:00
8:00 PM,67,63,81,,19,ENE,1.2,,,,Scattered Clouds,70,2013-02-22 18:00:00
8:00 PM,68.0,62.6,83,30.12,6.2,Variable,2.3,-,N/A,,Scattered Clouds,0,2013-02-22 18:00:00
9:00 PM,64.4,62.6,94,30.12,6.2,Calm,Calm,-,N/A,,Scattered Clouds,0,2013-02-22 19:00:00
10:00 PM,64.4,62.6,94,30.15,-9999.0,NE,5.8,-,N/A,,Clear,40,2013-02-22 20:00:00